Nearby METAR Reports

 

EIDW - Dublin Airport, Ireland
Distance from station: ENE 79km
Updated: 27/11/2022 11:00
Partly cloudy
Partly cloudy
 Wind from S
Wind: S 22 km/h
Temperature: 11°C
Dew Point: 6°C
Humidity: 72%
Barometer: 1006 hPa
Clouds: Partly cloudy
Visibility: 10 km
Cloud details: Few Clouds 549 m
Partly cloudy 732 m
2022/11/27 11:00 EIDW 271100Z 19012KT 9999 FEW018 SCT024 11/06 Q1006 NOSIG
EIME - Casement (mil), Ireland
Distance from station: ENE 62km
Updated: 27/11/2022 11:00
Few Clouds
Few Clouds
 Wind from SSW
Wind: SSW 28 km/h
Temperature: 11°C
Dew Point: 7°C
Humidity: 77%
Barometer: 1006 hPa
Clouds: Few Clouds
Visibility: 10 km
Cloud details: Few Clouds 1524 m
2022/11/27 11:00 EIME 271100Z 20015KT 9999 FEW050 11/07 Q1006
EIWF - Waterford Arpt, Ireland
Distance from station: S 111km
Updated: 27/11/2022 11:00
Light rain, Partly cloudy
Light rain, Partly cloudy
 Wind from WSW
Wind: WSW 20 km/h, Gust: 44 km/h
Temperature: 8°C
Wind Chill: 4°C
Dew Point: 6°C
Humidity: 87%
Barometer: 1008 hPa
Summary: Light rain
Clouds: Partly cloudy
Visibility: 8 km
Cloud details: Partly cloudy 549 m
2022/11/27 11:00 EIWF 271100Z 25011G24KT 200V290 8000 -RA SCT018CB 08/06 Q1008
 
EINN - Shannon Airport, Ireland
Distance from station: WSW 117km
Updated: 27/11/2022 11:00
Partly cloudy
Partly cloudy
 Wind from SSE
Wind: SSE 22 km/h
Temperature: 10°C
Wind Chill: 7°C
Dew Point: 7°C
Humidity: 82%
Barometer: 1004 hPa
Clouds: Partly cloudy
Visibility: 10 km
Cloud details: Few Clouds 488 m
Partly cloudy 5791 m
2022/11/27 11:00 EINN 271100Z 16012KT 9999 FEW016 SCT190 10/07 Q1004 NOSIG
EISG - Sligo Arpt, Ireland
Distance from station: NNW 148km
Updated: 27/11/2022 11:00
Overcast
Overcast
 Wind from ESE
Wind: ESE 13 km/h
Temperature: 8°C
Wind Chill: 6°C
Dew Point: 6°C
Humidity: 87%
Barometer: 1002 hPa
Clouds: Overcast
Visibility: 10 km
Cloud details: Mostly cloudy 396 m
Mostly cloudy 579 m
Overcast 732 m
2022/11/27 11:00 EISG 271100Z 11007KT 080V180 9999 BKN013 BKN019 OVC024 08/06 Q1002
EICK - Cork Arpt/Corcai, Ireland
Distance from station: SSW 165km
Updated: 27/11/2022 11:00
Partly cloudy
Partly cloudy
 Wind from SSW
Wind: SSW 26 km/h
Temperature: 9°C
Wind Chill: 6°C
Dew Point: 8°C
Humidity: 94%
Barometer: 1006 hPa
Clouds: Partly cloudy
Visibility: 10 km
Cloud details: Partly cloudy 549 m
Partly cloudy 1219 m
2022/11/27 11:00 EICK 271100Z 20014KT 9999 SCT018CB SCT040 09/08 Q1006 NOSIG
 
EGAA - Belfast/Aldergro, United Kingdom
Distance from station: NNE 179km
Updated: 27/11/2022 10:50
Clear
Clear
 Wind from S
Wind: S 19 km/h
Temperature: 9°C
Wind Chill: 6°C
Dew Point: 6°C
Humidity: 82%
Barometer: 1005 hPa
Clouds: Clear
Visibility: 10 km
2022/11/27 10:50 EGAA 271050Z AUTO 18010KT 9999 NCD 09/06 Q1005
EIKY - Kerry Arpt, Ireland
Distance from station: SW 182km
Updated: 27/11/2022 11:00
Light rain, Mostly cloudy
Light rain, Mostly cloudy
 Wind from SSW
Wind: SSW 20 km/h
Temperature: 9°C
Wind Chill: 6°C
Dew Point: 7°C
Humidity: 87%
Barometer: 1004 hPa
Summary: Light rain
Clouds: Mostly cloudy
Visibility: 10 km
Cloud details: Partly cloudy 305 m
Mostly cloudy 853 m
2022/11/27 11:00 EIKY 271100Z 20011KT 9999 -RA SCT010 BKN028 09/07 Q1004
EGAC - Belfast Harbour, United Kingdom
Distance from station: NNE 188km
Updated: 27/11/2022 10:50
Clear
Clear
 Wind from SSW
Wind: SSW 24 km/h
Temperature: 10°C
Wind Chill: 7°C
Dew Point: 6°C
Humidity: 76%
Barometer: 1005 hPa
Clouds: Clear
Visibility: 10 km
2022/11/27 10:50 EGAC 271050Z AUTO 21013KT 9999 NCD 10/06 Q1005
 
EGOV - Valley Raf, United Kingdom
Distance from station: E 188km
Updated: 27/11/2022 10:50
Mist, Few clouds
Mist, Few clouds
 Wind from SSW
Wind: SSW 33 km/h
Temperature: 12°C
Dew Point: 8°C
Humidity: 77%
Barometer: 1009 hPa
Summary: Mist
Clouds: Few Clouds
Visibility: 8 km
Cloud details: Few Clouds 732 m
2022/11/27 10:50 EGOV 271050Z AUTO 20018KT 8000 BR FEW024/// 12/08 Q1009
EGNS - Isle Of Man/Rona, United Kingdom
Distance from station: ENE 207km
Updated: 27/11/2022 10:50
Few Clouds
Few Clouds
 Wind from SSW
Wind: SSW 43 km/h
Temperature: 12°C
Dew Point: 8°C
Humidity: 77%
Barometer: 1007 hPa
Clouds: Few Clouds
Visibility: 10 km
Cloud details: Few Clouds 610 m
2022/11/27 10:50 EGNS 271050Z 21023KT 9999 FEW020 12/08 Q1007 NOSIG